Other Surface Observations
Issued by NWS Great Falls, MT

Home | Current Version | Previous Version | Text Only | Print | Product List | Glossary On
Versions: 1 2 3 4 5 6 7 8 9 10 11 12 13 14 15 16 17 18 19 20 21 22 23 24 25 26 27 28 29 30 31 32 33 34 35 36 37 38 39 40 41 42 43 44 45 46 47 48 49 50
000
SXUS55 KTFX 211710
OSOTFX
AREA AWOS OBSERVATIONS
NATIONAL WEATHER SERVICE GREAT FALLS MT
1105 AM MDT SUN SEP 21 2014

METAR KPWD 211700Z AUTO 21004KT 10SM 18/04 A3028 RMK PLENTYWOOD
METAR KPO1 211700Z AUTO 00000KT 17/04 RMK POPLAR
METAR K1S3 211700Z AUTO 09007KT 10SM 19/07 A3028 RMK FORSYTH
METAR KS71 211700Z AUTO 09008KT 10SM 17/08 A3023 RMK CHINOOK
METAR K6S0 211700Z AUTO 10SM 14/06 A3030 RMK BIG TIMBER
METAR K79S 211700Z AUTO 00000KT 10SM 16/07 A3023 RMK FORT BENTON
METAR KEKS 211700Z AUTO 00000KT 10SM 16/04 A3034 RMK ENNIS
METAR K38S 211700Z AUTO 09003KT 10SM 17/07 A3026 RMK DEER LODGE
METAR K3U3 211700Z AUTO 16007KT 19/04 A3023 RMK ANACONDA
METAR K6S5 211700Z AUTO 00000KT 10SM 18/05 A3016 RMK HAMILTON
METAR KS59 211700Z AUTO 00000KT 10SM 17/06 A3014 RMK LIBBY



USA.gov is the U.S. government's official web portal to all federal, state and local government web resources and services.